Time;durP1;ratioP1;P1;durP2;ratioP2;P2;SDS_P1;SDS_P2;PMS_P1;PMS_P2;Temp;Humidity;BMP_temperature;BMP_pressure;BME280_temperature;BME280_humidity;BME280_pressure;Samples;Min_cycle;Max_cycle;Signal;HPM_P1;HPM_P2
2022/09/21 00:00:54;;;;;;;9.45;1.92;;;;;;;;;;5095070;28;20466;-84
2022/09/21 00:03:20;;;;;;;6.65;1.60;;;;;;;;;;5095228;28;20032;-84
2022/09/21 00:05:46;;;;;;;4.03;1.83;;;;;;;;;;5101899;28;20026;-84
2022/09/21 00:08:13;;;;;;;4.85;1.73;;;;;;;;;;5097082;28;20028;-84
2022/09/21 00:10:40;;;;;;;5.72;1.70;;;;;;;;;;5115680;28;20023;-84
2022/09/21 00:13:07;;;;;;;3.08;1.77;;;;;;;;;;5115239;28;20096;-84
2022/09/21 00:15:34;;;;;;;8.20;1.65;;;;;;;;;;5115143;28;20458;-84
2022/09/21 00:18:00;;;;;;;6.55;1.77;;;;;;;;;;5115305;28;20427;-84
2022/09/21 00:20:28;;;;;;;7.00;1.58;;;;;;;;;;5097036;28;20091;-84
2022/09/21 00:22:54;;;;;;;5.43;1.50;;;;;;;;;;5096767;28;20047;-84
2022/09/21 00:25:20;;;;;;;9.25;1.85;;;;;;;;;;5115595;28;20024;-84
2022/09/21 00:27:50;;;;;;;3.30;1.30;;;;;;;;;;5096628;28;20481;-84
2022/09/21 00:30:16;;;;;;;4.25;1.40;;;;;;;;;;5115168;28;20028;-84
2022/09/21 00:32:42;;;;;;;4.80;1.80;;;;;;;;;;5114839;28;20027;-84
2022/09/21 00:35:08;;;;;;;9.27;1.83;;;;;;;;;;5114955;28;20035;-84
2022/09/21 00:37:34;;;;;;;4.53;1.70;;;;;;;;;;5114908;28;20023;-84
2022/09/21 00:40:00;;;;;;;5.72;1.60;;;;;;;;;;5114768;28;20020;-84
2022/09/21 00:42:28;;;;;;;4.32;1.48;;;;;;;;;;5114877;28;20040;-84
2022/09/21 00:44:54;;;;;;;4.93;1.55;;;;;;;;;;5096378;28;20065;-84
2022/09/21 00:47:27;;;;;;;3.33;1.58;;;;;;;;;;5114859;28;20012;-84
2022/09/21 00:49:54;;;;;;;9.10;1.98;;;;;;;;;;5096206;28;20020;-84
2022/09/21 00:52:22;;;;;;;6.80;1.40;;;;;;;;;;5096100;28;20028;-84
2022/09/21 00:55:00;;;;;;;9.10;1.35;;;;;;;;;;5114536;28;20097;-83
2022/09/21 00:57:29;;;;;;;6.78;1.73;;;;;;;;;;5114499;28;20452;-84
2022/09/21 00:59:56;;;;;;;4.85;1.70;;;;;;;;;;5096130;28;20111;-84
2022/09/21 01:02:23;;;;;;;5.43;1.60;;;;;;;;;;5114385;28;20452;-83
2022/09/21 01:04:52;;;;;;;5.63;1.40;;;;;;;;;;5114474;28;20076;-84
2022/09/21 01:07:21;;;;;;;4.55;2.33;;;;;;;;;;5114347;28;20042;-84
2022/09/21 01:09:49;;;;;;;4.43;1.85;;;;;;;;;;5114198;28;20020;-84
2022/09/21 01:12:25;;;;;;;6.22;2.08;;;;;;;;;;5095440;28;20031;-84
2022/09/21 01:15:03;;;;;;;8.57;1.75;;;;;;;;;;5114330;28;20024;-84
2022/09/21 01:17:32;;;;;;;3.78;2.10;;;;;;;;;;5113888;28;20048;-84
2022/09/21 01:19:58;;;;;;;6.15;1.70;;;;;;;;;;5113924;28;20027;-84
2022/09/21 01:22:27;;;;;;;4.72;1.50;;;;;;;;;;5095690;28;20115;-84
2022/09/21 01:24:53;;;;;;;7.25;1.83;;;;;;;;;;5114329;28;20098;-83
2022/09/21 01:27:20;;;;;;;5.22;1.83;;;;;;;;;;5114136;28;20076;-84
2022/09/21 01:29:51;;;;;;;4.20;1.52;;;;;;;;;;5113808;28;20020;-84
2022/09/21 01:32:29;;;;;;;5.13;1.60;;;;;;;;;;5095432;28;20031;-84
2022/09/21 01:35:05;;;;;;;6.75;1.95;;;;;;;;;;5082384;28;20020;-84
2022/09/21 01:37:41;;;;;;;2.50;1.40;;;;;;;;;;5075542;28;20016;-84
2022/09/21 01:40:10;;;;;;;10.80;2.58;;;;;;;;;;5093450;28;20020;-84
2022/09/21 01:42:37;;;;;;;5.75;1.80;;;;;;;;;;5075181;28;20350;-84
2022/09/21 01:45:06;;;;;;;11.82;1.75;;;;;;;;;;5074956;28;20447;-84
2022/09/21 01:47:33;;;;;;;3.40;2.10;;;;;;;;;;5093328;28;20077;-84
2022/09/21 01:50:00;;;;;;;3.67;1.63;;;;;;;;;;5093062;28;20016;-84
2022/09/21 01:52:31;;;;;;;4.05;2.05;;;;;;;;;;5093185;28;20378;-84
2022/09/21 01:55:02;;;;;;;9.23;2.00;;;;;;;;;;5093430;28;20020;-83
2022/09/21 01:57:34;;;;;;;6.72;1.80;;;;;;;;;;5093007;28;20031;-84
2022/09/21 02:00:01;;;;;;;4.80;1.85;;;;;;;;;;5093217;28;20027;-83
2022/09/21 02:02:35;;;;;;;6.45;2.05;;;;;;;;;;5093045;28;20021;-83
2022/09/21 02:05:01;;;;;;;6.65;1.70;;;;;;;;;;5093616;28;20027;-83
2022/09/21 02:07:27;;;;;;;8.32;1.90;;;;;;;;;;5113407;28;20027;-83
2022/09/21 02:09:55;;;;;;;5.43;1.90;;;;;;;;;;5113371;28;20020;-83
2022/09/21 02:12:21;;;;;;;3.80;1.67;;;;;;;;;;5113262;28;20020;-83
2022/09/21 02:14:48;;;;;;;6.82;1.70;;;;;;;;;;5113169;28;20019;-83
2022/09/21 02:17:33;;;;;;;4.68;1.83;;;;;;;;;;5112909;28;20040;-83
2022/09/21 02:20:08;;;;;;;4.03;1.73;;;;;;;;;;5113233;28;20020;-83
2022/09/21 02:22:43;;;;;;;6.82;1.98;;;;;;;;;;5094238;28;20390;-83
2022/09/21 02:25:14;;;;;;;7.15;2.05;;;;;;;;;;5112997;28;20114;-83
2022/09/21 02:27:40;;;;;;;5.35;2.00;;;;;;;;;;5113237;28;20052;-83
2022/09/21 02:30:12;;;;;;;3.08;1.75;;;;;;;;;;5113069;28;20078;-83
2022/09/21 02:32:41;;;;;;;5.25;2.00;;;;;;;;;;5112773;28;20059;-83
2022/09/21 02:35:08;;;;;;;6.15;2.30;;;;;;;;;;5113113;28;20030;-83
2022/09/21 02:37:36;;;;;;;4.47;1.98;;;;;;;;;;5113016;28;20026;-83
2022/09/21 02:40:08;;;;;;;3.72;1.95;;;;;;;;;;5094427;28;20028;-83
2022/09/21 02:42:37;;;;;;;7.03;2.30;;;;;;;;;;5113049;28;20020;-83
2022/09/21 02:45:07;;;;;;;4.60;2.00;;;;;;;;;;5113060;28;20319;-83
2022/09/21 02:47:33;;;;;;;4.38;1.88;;;;;;;;;;5112792;28;20427;-83
2022/09/21 02:50:03;;;;;;;4.75;1.70;;;;;;;;;;5112537;28;20026;-83
2022/09/21 02:52:30;;;;;;;5.45;1.92;;;;;;;;;;5112702;28;20102;-83
2022/09/21 02:54:56;;;;;;;3.40;1.88;;;;;;;;;;5107393;28;20470;-83
2022/09/21 02:57:23;;;;;;;5.63;1.83;;;;;;;;;;5092339;28;20107;-83
2022/09/21 02:59:49;;;;;;;6.38;1.85;;;;;;;;;;5092337;28;20103;-83
2022/09/21 03:02:15;;;;;;;5.20;1.83;;;;;;;;;;5092150;28;20480;-83
2022/09/21 03:04:46;;;;;;;3.30;1.80;;;;;;;;;;5092487;28;20016;-83
2022/09/21 03:07:12;;;;;;;7.63;1.67;;;;;;;;;;5092540;28;20016;-83
2022/09/21 03:09:38;;;;;;;7.03;1.60;;;;;;;;;;5092557;28;20063;-83
2022/09/21 03:12:04;;;;;;;4.20;1.83;;;;;;;;;;5092505;28;20020;-83
2022/09/21 03:14:31;;;;;;;3.72;1.70;;;;;;;;;;5073910;28;20461;-83
2022/09/21 03:16:57;;;;;;;6.38;1.77;;;;;;;;;;5092140;28;20067;-83
2022/09/21 03:19:24;;;;;;;4.53;1.80;;;;;;;;;;5092228;28;20027;-83
2022/09/21 03:21:50;;;;;;;5.55;1.88;;;;;;;;;;5092147;28;20021;-83
2022/09/21 03:24:44;;;;;;;3.92;1.60;;;;;;;;;;5092196;28;20063;-83
2022/09/21 03:27:02;;;;;;;2.47;1.42;;;;;;;;;;5091626;28;20039;-83
2022/09/21 03:29:28;;;;;;;4.32;1.42;;;;;;;;;;5092053;28;20058;-83
2022/09/21 03:31:54;;;;;;;9.98;1.83;;;;;;;;;;5092096;28;20023;-83
2022/09/21 03:34:20;;;;;;;4.57;1.40;;;;;;;;;;5100353;28;20028;-83
2022/09/21 03:36:47;;;;;;;8.63;1.80;;;;;;;;;;5116052;28;20354;-83
2022/09/21 03:39:13;;;;;;;6.07;1.60;;;;;;;;;;5116343;28;20016;-83
2022/09/21 03:41:40;;;;;;;5.43;1.45;;;;;;;;;;5115992;28;20028;-83
2022/09/21 03:44:06;;;;;;;5.75;1.70;;;;;;;;;;5116218;28;20483;-83
2022/09/21 03:46:34;;;;;;;4.93;1.40;;;;;;;;;;5115879;28;20466;-83
2022/09/21 03:49:00;;;;;;;2.78;1.40;;;;;;;;;;5116029;28;20041;-83
2022/09/21 03:51:26;;;;;;;7.90;1.60;;;;;;;;;;5115911;28;20485;-83
2022/09/21 03:53:52;;;;;;;5.70;1.35;;;;;;;;;;5115704;28;20028;-83
2022/09/21 03:56:18;;;;;;;5.13;1.55;;;;;;;;;;5116139;28;20024;-83
2022/09/21 03:58:44;;;;;;;6.07;1.50;;;;;;;;;;5116095;28;20019;-83
2022/09/21 04:01:10;;;;;;;5.60;1.48;;;;;;;;;;5115474;28;20084;-83
2022/09/21 04:03:37;;;;;;;4.57;1.55;;;;;;;;;;5115807;28;20023;-83
2022/09/21 04:06:08;;;;;;;2.25;1.30;;;;;;;;;;5106368;28;20030;-83
2022/09/21 04:08:34;;;;;;;3.95;1.55;;;;;;;;;;5095203;28;20431;-83
2022/09/21 04:11:01;;;;;;;3.63;1.38;;;;;;;;;;5095002;28;20032;-83
2022/09/21 04:13:27;;;;;;;5.07;1.60;;;;;;;;;;5094777;28;20017;-83
2022/09/21 04:15:53;;;;;;;4.97;1.70;;;;;;;;;;5095337;28;20040;-83
2022/09/21 04:18:19;;;;;;;2.83;1.67;;;;;;;;;;5095081;28;20454;-83
2022/09/21 04:20:45;;;;;;;4.45;1.75;;;;;;;;;;5095023;28;20020;-83
2022/09/21 04:23:11;;;;;;;4.60;1.85;;;;;;;;;;5094670;28;20489;-83
2022/09/21 04:25:37;;;;;;;9.77;1.40;;;;;;;;;;5094849;28;20107;-83
2022/09/21 04:28:03;;;;;;;5.72;1.40;;;;;;;;;;5094893;28;20432;-83
2022/09/21 04:30:29;;;;;;;8.57;1.65;;;;;;;;;;5076188;28;20390;-83
2022/09/21 04:32:55;;;;;;;4.25;1.30;;;;;;;;;;5094761;28;20379;-83
2022/09/21 04:35:21;;;;;;;4.93;1.63;;;;;;;;;;5094700;28;20450;-82
2022/09/21 04:37:47;;;;;;;3.92;1.35;;;;;;;;;;5076072;28;20027;-83
2022/09/21 04:40:13;;;;;;;4.20;1.42;;;;;;;;;;5094454;28;20035;-83
2022/09/21 04:42:39;;;;;;;2.13;1.38;;;;;;;;;;5094602;28;20027;-83
2022/09/21 04:45:06;;;;;;;3.38;1.40;;;;;;;;;;5094378;28;20028;-83
2022/09/21 04:47:32;;;;;;;5.13;1.75;;;;;;;;;;5093465;28;20100;-83
2022/09/21 04:49:58;;;;;;;6.03;1.70;;;;;;;;;;5094437;28;20714;-83
2022/09/21 04:52:24;;;;;;;3.88;1.40;;;;;;;;;;5094112;28;20036;-83
2022/09/21 04:54:51;;;;;;;6.07;1.17;;;;;;;;;;5099623;28;20035;-83
2022/09/21 04:57:17;;;;;;;4.63;1.52;;;;;;;;;;5114821;28;20458;-82
2022/09/21 04:59:43;;;;;;;3.75;1.77;;;;;;;;;;5114331;28;20028;-82
2022/09/21 05:02:09;;;;;;;12.60;1.50;;;;;;;;;;5096047;28;20027;-83
2022/09/21 05:04:36;;;;;;;3.97;1.55;;;;;;;;;;5114588;28;20026;-83
2022/09/21 05:07:02;;;;;;;4.57;1.40;;;;;;;;;;5114323;28;20047;-83
2022/09/21 05:12:12;;;;;;;3.63;1.15;;;;;;;;;;5114800;28;20074;-83
2022/09/21 05:14:39;;;;;;;5.22;1.50;;;;;;;;;;5114109;28;20067;-83
2022/09/21 05:17:05;;;;;;;3.20;1.65;;;;;;;;;;5114024;28;20570;-83
2022/09/21 05:19:31;;;;;;;5.57;1.92;;;;;;;;;;5114004;28;20019;-82
2022/09/21 05:21:58;;;;;;;5.18;1.50;;;;;;;;;;5114081;28;20019;-83
2022/09/21 05:24:24;;;;;;;5.88;1.60;;;;;;;;;;5114150;28;20020;-83
2022/09/21 05:26:50;;;;;;;5.95;1.50;;;;;;;;;;5113910;28;20058;-82
2022/09/21 05:29:16;;;;;;;5.38;1.65;;;;;;;;;;5114011;28;20027;-83
2022/09/21 05:31:51;;;;;;;4.75;1.20;;;;;;;;;;5113858;28;20091;-82
2022/09/21 05:34:25;;;;;;;5.28;1.27;;;;;;;;;;5113580;28;20030;-82
2022/09/21 05:37:09;;;;;;;3.35;1.13;;;;;;;;;;5113795;28;20130;-82
2022/09/21 05:39:35;;;;;;;8.02;1.35;;;;;;;;;;5113899;28;20073;-82
2022/09/21 05:42:01;;;;;;;4.63;1.48;;;;;;;;;;5113667;28;20027;-83
2022/09/21 05:44:27;;;;;;;5.00;1.67;;;;;;;;;;5113596;28;20034;-83
2022/09/21 05:46:57;;;;;;;4.30;1.30;;;;;;;;;;5095197;28;20046;-83
2022/09/21 05:49:32;;;;;;;11.90;1.90;;;;;;;;;;5113507;28;20023;-83
2022/09/21 05:52:06;;;;;;;7.30;2.80;;;;;;;;;;5113647;28;20115;-83
2022/09/21 05:54:32;;;;;;;7.85;1.92;;;;;;;;;;5094976;28;20377;-83
2022/09/21 05:57:17;;;;;;;3.35;1.60;;;;;;;;;;5113321;28;20023;-83
2022/09/21 06:00:07;;;;;;;6.38;1.65;;;;;;;;;;5113459;28;20027;-83
2022/09/21 06:02:33;;;;;;;6.28;2.20;;;;;;;;;;5113298;28;20047;-82
2022/09/21 06:04:59;;;;;;;4.53;1.90;;;;;;;;;;5113027;28;20073;-82
2022/09/21 06:07:25;;;;;;;5.25;1.90;;;;;;;;;;5092927;28;20023;-83
2022/09/21 06:09:51;;;;;;;4.38;2.08;;;;;;;;;;5093008;28;20048;-82
2022/09/21 06:12:18;;;;;;;5.35;1.95;;;;;;;;;;5093004;28;20048;-82
2022/09/21 06:14:44;;;;;;;8.48;2.75;;;;;;;;;;5092540;28;20474;-83
2022/09/21 06:17:10;;;;;;;10.30;2.28;;;;;;;;;;5092961;28;20048;-83
2022/09/21 06:19:36;;;;;;;8.43;2.30;;;;;;;;;;5092907;28;20096;-83
2022/09/21 06:22:02;;;;;;;4.50;1.98;;;;;;;;;;5092509;28;20098;-82
2022/09/21 06:24:28;;;;;;;4.82;2.17;;;;;;;;;;5092921;28;20035;-82
2022/09/21 06:26:54;;;;;;;5.65;2.30;;;;;;;;;;5092682;28;20495;-83
2022/09/21 06:29:22;;;;;;;7.03;2.00;;;;;;;;;;5092482;28;20028;-82
2022/09/21 06:31:49;;;;;;;7.13;2.80;;;;;;;;;;5092489;28;20035;-83
2022/09/21 06:34:15;;;;;;;5.35;2.33;;;;;;;;;;5092940;28;20052;-82
2022/09/21 06:36:41;;;;;;;3.95;2.17;;;;;;;;;;5074299;28;20432;-83
2022/09/21 06:39:07;;;;;;;5.82;2.00;;;;;;;;;;5092393;28;20020;-83
2022/09/21 06:41:33;;;;;;;6.90;2.00;;;;;;;;;;5074203;28;20021;-83
2022/09/21 06:43:59;;;;;;;6.25;1.70;;;;;;;;;;5092462;28;20078;-83
2022/09/21 06:46:25;;;;;;;2.70;1.50;;;;;;;;;;5108566;28;20403;-83
2022/09/21 06:48:51;;;;;;;5.32;1.98;;;;;;;;;;5112768;28;20027;-84
2022/09/21 06:51:19;;;;;;;8.85;1.98;;;;;;;;;;5094221;28;20106;-83
2022/09/21 06:53:46;;;;;;;5.40;1.65;;;;;;;;;;5112718;28;20558;-83
2022/09/21 06:56:12;;;;;;;6.15;2.03;;;;;;;;;;5112466;28;20462;-83
2022/09/21 06:58:38;;;;;;;4.65;2.40;;;;;;;;;;5112683;28;20042;-83
2022/09/21 07:01:14;;;;;;;5.68;2.50;;;;;;;;;;5094184;28;20748;-83
2022/09/21 07:03:40;;;;;;;7.47;3.28;;;;;;;;;;5112580;28;20023;-83
2022/09/21 07:06:07;;;;;;;15.15;6.63;;;;;;;;;;5112617;28;20030;-83
2022/09/21 07:08:34;;;;;;;16.67;6.28;;;;;;;;;;5112506;28;20023;-83
2022/09/21 07:11:01;;;;;;;11.57;5.40;;;;;;;;;;5115714;28;20023;-83
2022/09/21 07:13:28;;;;;;;15.95;7.10;;;;;;;;;;5098037;28;20084;-83
2022/09/21 07:15:54;;;;;;;10.57;6.85;;;;;;;;;;5116166;28;20044;-83
2022/09/21 07:18:20;;;;;;;13.25;6.15;;;;;;;;;;5116472;28;20011;-83
2022/09/21 07:20:49;;;;;;;10.35;5.65;;;;;;;;;;5116309;28;20023;-83
2022/09/21 07:23:16;;;;;;;20.50;5.55;;;;;;;;;;5115385;28;20152;-83
2022/09/21 07:25:43;;;;;;;8.70;5.50;;;;;;;;;;5111057;27;20032;-83
2022/09/21 07:28:11;;;;;;;12.75;4.90;;;;;;;;;;5136630;27;20070;-83
2022/09/21 07:30:38;;;;;;;9.07;4.43;;;;;;;;;;5136699;27;20079;-83
2022/09/21 07:33:05;;;;;;;4.82;3.17;;;;;;;;;;5136508;27;20028;-83
2022/09/21 07:35:31;;;;;;;7.97;2.72;;;;;;;;;;5100451;27;20035;-83
2022/09/21 07:37:58;;;;;;;4.43;2.30;;;;;;;;;;5095637;28;20020;-83
2022/09/21 07:40:24;;;;;;;6.70;2.42;;;;;;;;;;5114356;27;20020;-83
2022/09/21 07:42:51;;;;;;;6.65;2.28;;;;;;;;;;5117018;27;20050;-84
2022/09/21 07:45:17;;;;;;;8.23;3.53;;;;;;;;;;5136623;27;20046;-84
2022/09/21 07:47:43;;;;;;;6.78;3.35;;;;;;;;;;5120578;27;20103;-84
2022/09/21 07:50:10;;;;;;;6.35;2.67;;;;;;;;;;5115663;28;20047;-84
2022/09/21 07:52:36;;;;;;;8.23;3.08;;;;;;;;;;5095153;28;20119;-84
2022/09/21 07:55:02;;;;;;;10.75;3.35;;;;;;;;;;5124371;27;20019;-83
2022/09/21 08:00:13;;;;;;;12.90;3.38;;;;;;;;;;5095176;28;20097;-83
2022/09/21 08:02:39;;;;;;;9.18;2.53;;;;;;;;;;5094944;28;20020;-83
2022/09/21 08:05:05;;;;;;;5.75;2.40;;;;;;;;;;5096409;28;20023;-86
2022/09/21 08:07:31;;;;;;;5.82;2.28;;;;;;;;;;5115504;28;20077;-85
2022/09/21 08:09:57;;;;;;;10.43;2.45;;;;;;;;;;5115859;28;20107;-84
2022/09/21 08:12:24;;;;;;;8.70;2.03;;;;;;;;;;5115563;28;20055;-85
2022/09/21 08:14:50;;;;;;;7.65;2.35;;;;;;;;;;5115078;28;20381;-84
2022/09/21 08:17:16;;;;;;;11.65;2.25;;;;;;;;;;5115204;28;20430;-85
2022/09/21 08:19:42;;;;;;;6.97;2.03;;;;;;;;;;5115275;28;20019;-85
2022/09/21 08:22:08;;;;;;;9.48;2.08;;;;;;;;;;5114364;27;20019;-85
2022/09/21 08:24:35;;;;;;;8.00;2.00;;;;;;;;;;5115522;28;20028;-82
2022/09/21 08:27:01;;;;;;;7.65;1.73;;;;;;;;;;5115299;28;20426;-83
2022/09/21 08:29:28;;;;;;;5.57;1.75;;;;;;;;;;5115492;28;20027;-83
2022/09/21 08:31:54;;;;;;;9.20;1.95;;;;;;;;;;5114989;28;20381;-83
2022/09/21 08:34:20;;;;;;;12.40;1.90;;;;;;;;;;5115241;28;20114;-86
2022/09/21 08:36:46;;;;;;;6.53;1.60;;;;;;;;;;5115251;28;20519;-84
2022/09/21 08:39:12;;;;;;;11.35;2.42;;;;;;;;;;5115121;27;20027;-81
2022/09/21 08:41:56;;;;;;;9.85;1.90;;;;;;;;;;5114841;28;20053;-82
2022/09/21 08:44:24;;;;;;;11.27;1.88;;;;;;;;;;5114821;28;20339;-81
2022/09/21 08:47:22;;;;;;;7.43;1.90;;;;;;;;;;5114949;28;20023;-80
2022/09/21 08:49:51;;;;;;;8.05;1.48;;;;;;;;;;5059994;28;20047;-81
2022/09/21 08:52:19;;;;;;;5.18;1.75;;;;;;;;;;5114782;28;20030;-80
2022/09/21 08:54:51;;;;;;;6.35;1.77;;;;;;;;;;5109647;28;20027;-81
2022/09/21 08:57:18;;;;;;;7.80;1.92;;;;;;;;;;5094176;28;20055;-81
2022/09/21 08:59:48;;;;;;;6.63;1.52;;;;;;;;;;5094136;28;20044;-81
2022/09/21 09:02:14;;;;;;;6.60;1.65;;;;;;;;;;5094084;28;20977;-81
2022/09/21 09:04:51;;;;;;;8.50;1.88;;;;;;;;;;5094164;28;20110;-81
2022/09/21 09:07:25;;;;;;;4.65;1.20;;;;;;;;;;5093994;28;20024;-81
2022/09/21 09:09:54;;;;;;;4.50;1.25;;;;;;;;;;5093901;28;20138;-81
2022/09/21 09:12:34;;;;;;;8.40;1.20;;;;;;;;;;5093993;28;20027;-81
2022/09/21 09:15:12;;;;;;;6.80;1.40;;;;;;;;;;5093836;28;20435;-81
2022/09/21 09:17:38;;;;;;;10.15;1.60;;;;;;;;;;5094046;28;20063;-81
2022/09/21 09:20:07;;;;;;;9.63;1.35;;;;;;;;;;5093672;28;20035;-81
2022/09/21 09:22:40;;;;;;;9.55;1.50;;;;;;;;;;5093896;28;20044;-81
2022/09/21 09:25:14;;;;;;;6.25;1.50;;;;;;;;;;5075693;28;20369;-81
2022/09/21 09:27:42;;;;;;;4.75;1.58;;;;;;;;;;5093711;28;20537;-81
2022/09/21 09:30:21;;;;;;;11.82;1.20;;;;;;;;;;5093501;28;20425;-81
2022/09/21 09:32:51;;;;;;;5.88;1.75;;;;;;;;;;5074773;28;20020;-81
2022/09/21 09:35:20;;;;;;;7.50;1.50;;;;;;;;;;5109374;28;20027;-81
2022/09/21 09:37:46;;;;;;;5.00;1.35;;;;;;;;;;5114145;28;20019;-81
2022/09/21 09:40:13;;;;;;;5.35;1.17;;;;;;;;;;5113690;28;20024;-81
2022/09/21 09:42:51;;;;;;;3.97;1.00;;;;;;;;;;5095185;28;20413;-81
2022/09/21 09:45:36;;;;;;;4.32;0.90;;;;;;;;;;5113601;28;20051;-80
2022/09/21 09:48:15;;;;;;;3.17;1.20;;;;;;;;;;5113617;28;20053;-80
2022/09/21 09:50:41;;;;;;;9.13;1.38;;;;;;;;;;5113454;28;20016;-80
2022/09/21 09:53:24;;;;;;;5.00;0.90;;;;;;;;;;5113421;28;20030;-81
2022/09/21 09:55:51;;;;;;;4.78;0.55;;;;;;;;;;5113145;28;20073;-81
2022/09/21 09:58:28;;;;;;;3.80;0.47;;;;;;;;;;5094996;28;20516;-80
2022/09/21 10:00:55;;;;;;;3.22;0.50;;;;;;;;;;5095342;28;20043;-82
2022/09/21 10:03:25;;;;;;;5.20;0.70;;;;;;;;;;5112167;27;20053;-82
2022/09/21 10:05:51;;;;;;;4.85;0.82;;;;;;;;;;5113490;28;20027;-80
2022/09/21 10:08:52;;;;;;;3.95;0.70;;;;;;;;;;5096224;28;20412;-81
2022/09/21 10:11:18;;;;;;;3.45;0.90;;;;;;;;;;5049729;28;20032;-81
2022/09/21 10:13:48;;;;;;;2.78;0.80;;;;;;;;;;5106579;28;20461;-81
2022/09/21 10:16:18;;;;;;;4.68;0.75;;;;;;;;;;5100067;28;20042;-81
2022/09/21 10:18:48;;;;;;;3.45;0.80;;;;;;;;;;5113046;28;20019;-81
2022/09/21 10:21:32;;;;;;;6.68;1.10;;;;;;;;;;5111381;28;20015;-82
2022/09/21 10:24:02;;;;;;;6.68;1.10;;;;;;;;;;5103080;28;20054;-82
2022/09/21 10:26:34;;;;;;;3.45;1.00;;;;;;;;;;5112946;28;20125;-82
2022/09/21 10:29:01;;;;;;;2.97;0.90;;;;;;;;;;5113086;28;20418;-82
2022/09/21 10:31:30;;;;;;;4.85;1.00;;;;;;;;;;5112783;28;20696;-82
2022/09/21 10:34:12;;;;;;;8.43;1.30;;;;;;;;;;5112821;28;20094;-82
2022/09/21 10:36:38;;;;;;;4.53;1.02;;;;;;;;;;5113164;28;20024;-82
2022/09/21 10:39:12;;;;;;;4.38;1.00;;;;;;;;;;5094513;28;20089;-82
2022/09/21 10:41:38;;;;;;;7.93;1.15;;;;;;;;;;5112825;28;20027;-82
2022/09/21 10:44:11;;;;;;;5.10;1.30;;;;;;;;;;5112855;28;20027;-82
2022/09/21 10:46:37;;;;;;;8.25;1.13;;;;;;;;;;5116837;28;20028;-82
2022/09/21 10:49:03;;;;;;;5.10;1.10;;;;;;;;;;5117000;28;20035;-83
2022/09/21 10:51:30;;;;;;;3.97;0.88;;;;;;;;;;5116918;28;20062;-83
2022/09/21 10:53:57;;;;;;;6.20;0.82;;;;;;;;;;5117066;28;20085;-83
2022/09/21 10:56:23;;;;;;;6.03;1.15;;;;;;;;;;5098312;28;20085;-81
2022/09/21 10:59:08;;;;;;;3.67;0.63;;;;;;;;;;5114709;28;20023;-81
2022/09/21 11:01:34;;;;;;;6.55;1.00;;;;;;;;;;5116875;28;20019;-81
2022/09/21 11:04:02;;;;;;;3.30;0.93;;;;;;;;;;5098165;28;20023;-79
2022/09/21 11:06:40;;;;;;;3.45;1.05;;;;;;;;;;5096306;28;20126;-82
2022/09/21 11:09:16;;;;;;;5.15;1.20;;;;;;;;;;5087187;28;20346;-81
2022/09/21 11:12:01;;;;;;;3.35;0.90;;;;;;;;;;5116745;28;20085;-81
2022/09/21 11:14:27;;;;;;;3.47;0.95;;;;;;;;;;5095997;28;20030;-82
2022/09/21 11:16:56;;;;;;;2.47;1.00;;;;;;;;;;5095906;28;20039;-82
2022/09/21 11:19:28;;;;;;;6.45;1.40;;;;;;;;;;5096039;28;20027;-82
2022/09/21 11:22:00;;;;;;;8.30;1.25;;;;;;;;;;5096186;28;20020;-82
2022/09/21 11:24:26;;;;;;;4.22;1.02;;;;;;;;;;5096408;28;20039;-82
2022/09/21 11:26:53;;;;;;;5.22;1.20;;;;;;;;;;5095909;28;20028;-82
2022/09/21 11:29:24;;;;;;;2.20;0.95;;;;;;;;;;5096350;28;20078;-82
2022/09/21 11:31:52;;;;;;;2.20;0.70;;;;;;;;;;5095854;28;20024;-82
2022/09/21 11:34:37;;;;;;;3.15;1.00;;;;;;;;;;5103403;28;20044;-82
2022/09/21 11:37:17;;;;;;;3.38;0.85;;;;;;;;;;5097820;28;20381;-81
2022/09/21 11:39:43;;;;;;;6.50;1.30;;;;;;;;;;5116069;28;20429;-82
2022/09/21 11:42:33;;;;;;;6.82;1.33;;;;;;;;;;5097752;28;20421;-82
2022/09/21 11:45:00;;;;;;;4.20;0.65;;;;;;;;;;5104474;28;20020;-82
2022/09/21 11:47:26;;;;;;;3.08;1.30;;;;;;;;;;5095658;28;20137;-82
2022/09/21 11:50:18;;;;;;;2.15;0.70;;;;;;;;;;5113637;28;20084;-82
2022/09/21 11:52:47;;;;;;;2.38;0.32;;;;;;;;;;5116074;28;20031;-82
2022/09/21 11:55:22;;;;;;;2.08;0.30;;;;;;;;;;5115464;28;20058;-81
2022/09/21 11:57:48;;;;;;;2.72;0.30;;;;;;;;;;5115777;28;20020;-82
2022/09/21 12:00:14;;;;;;;4.05;0.32;;;;;;;;;;5115824;28;20034;-82
2022/09/21 12:03:07;;;;;;;2.53;0.35;;;;;;;;;;5115910;28;20077;-82
2022/09/21 12:05:39;;;;;;;2.17;0.40;;;;;;;;;;5115681;28;20019;-81
2022/09/21 12:08:20;;;;;;;4.03;0.40;;;;;;;;;;5114421;28;20507;-79
2022/09/21 12:10:46;;;;;;;2.35;0.60;;;;;;;;;;5111680;28;20032;-78
2022/09/21 12:13:22;;;;;;;2.72;0.52;;;;;;;;;;5096808;28;20118;-78
2022/09/21 12:16:03;;;;;;;3.85;0.50;;;;;;;;;;5114974;28;20095;-78
2022/09/21 12:18:29;;;;;;;1.80;0.50;;;;;;;;;;5114931;28;20024;-78
2022/09/21 12:21:04;;;;;;;2.10;0.68;;;;;;;;;;5111743;28;20054;-78
2022/09/21 12:23:33;;;;;;;3.13;0.57;;;;;;;;;;5100914;28;20040;-80
2022/09/21 12:26:01;;;;;;;2.45;0.40;;;;;;;;;;5095465;28;20043;-79
2022/09/21 12:28:29;;;;;;;2.65;0.65;;;;;;;;;;5095195;28;20041;-79
2022/09/21 12:31:04;;;;;;;3.60;0.50;;;;;;;;;;5095459;28;20028;-80
2022/09/21 12:33:49;;;;;;;2.40;0.50;;;;;;;;;;5094713;28;20024;-79
2022/09/21 12:36:21;;;;;;;3.35;0.93;;;;;;;;;;5094539;28;20450;-79
2022/09/21 12:38:52;;;;;;;3.22;0.40;;;;;;;;;;5076813;28;20020;-79
2022/09/21 12:41:21;;;;;;;1.23;0.40;;;;;;;;;;5094441;28;20042;-79
2022/09/21 12:43:50;;;;;;;1.67;0.47;;;;;;;;;;5094571;28;20392;-79
2022/09/21 12:46:29;;;;;;;6.63;0.65;;;;;;;;;;5094348;28;20066;-79
2022/09/21 12:48:56;;;;;;;7.53;0.95;;;;;;;;;;5094322;28;20571;-79
2022/09/21 12:51:29;;;;;;;2.03;0.40;;;;;;;;;;5094590;28;20024;-79
2022/09/21 12:53:56;;;;;;;2.30;0.43;;;;;;;;;;5094489;28;20016;-79
2022/09/21 12:56:43;;;;;;;2.85;0.52;;;;;;;;;;5094226;28;20063;-78
2022/09/21 12:59:15;;;;;;;5.97;0.60;;;;;;;;;;5094371;28;20063;-79
2022/09/21 13:01:41;;;;;;;4.57;0.50;;;;;;;;;;5100323;28;20038;-79
2022/09/21 13:04:26;;;;;;;6.55;0.85;;;;;;;;;;5114507;28;20019;-79
2022/09/21 13:06:52;;;;;;;3.40;0.60;;;;;;;;;;5114105;28;20027;-80
2022/09/21 13:09:19;;;;;;;3.08;0.50;;;;;;;;;;5114625;28;20024;-80
2022/09/21 13:12:08;;;;;;;3.83;0.80;;;;;;;;;;5108562;28;20020;-80
2022/09/21 13:14:36;;;;;;;2.83;0.60;;;;;;;;;;5099213;28;20386;-80
2022/09/21 13:17:03;;;;;;;2.63;0.60;;;;;;;;;;5105725;28;20035;-80
2022/09/21 13:19:30;;;;;;;3.25;0.80;;;;;;;;;;5110496;28;20032;-80
2022/09/21 13:22:29;;;;;;;4.20;0.55;;;;;;;;;;5096232;28;20024;-81
2022/09/21 13:25:05;;;;;;;7.43;0.80;;;;;;;;;;5054286;28;20404;-81
2022/09/21 13:27:49;;;;;;;2.75;0.60;;;;;;;;;;5087902;28;20430;-79
2022/09/21 13:30:28;;;;;;;2.92;0.70;;;;;;;;;;5112189;28;20170;-80
2022/09/21 13:32:54;;;;;;;1.95;0.52;;;;;;;;;;5104990;28;20392;-80
2022/09/21 13:35:39;;;;;;;3.78;0.80;;;;;;;;;;5101226;28;20027;-81
2022/09/21 13:38:29;;;;;;;2.08;0.57;;;;;;;;;;5093380;28;20025;-82
2022/09/21 13:40:59;;;;;;;3.90;0.60;;;;;;;;;;5093229;28;20046;-79
2022/09/21 13:43:45;;;;;;;3.47;0.68;;;;;;;;;;5114131;28;20062;-80
2022/09/21 13:46:31;;;;;;;4.93;0.75;;;;;;;;;;5113927;28;20146;-80
2022/09/21 13:48:59;;;;;;;4.22;0.75;;;;;;;;;;5104118;28;20031;-81
2022/09/21 13:51:25;;;;;;;2.67;0.60;;;;;;;;;;5086454;28;20051;-81
2022/09/21 13:53:56;;;;;;;3.75;0.93;;;;;;;;;;5107732;28;20024;-79
2022/09/21 13:56:24;;;;;;;7.38;0.77;;;;;;;;;;5093538;28;20020;-79
2022/09/21 13:58:52;;;;;;;10.27;1.30;;;;;;;;;;5112271;28;20416;-79
2022/09/21 14:01:20;;;;;;;8.98;1.40;;;;;;;;;;5113041;28;20019;-78
2022/09/21 14:03:49;;;;;;;6.93;0.93;;;;;;;;;;5113338;28;20485;-78
2022/09/21 14:06:17;;;;;;;5.22;0.77;;;;;;;;;;5113445;28;20024;-78
2022/09/21 14:08:49;;;;;;;4.47;0.60;;;;;;;;;;5113523;28;20102;-79
2022/09/21 14:11:15;;;;;;;1.83;0.60;;;;;;;;;;5095036;28;20528;-79
2022/09/21 14:13:44;;;;;;;4.05;0.60;;;;;;;;;;5112290;28;20038;-79
2022/09/21 14:16:32;;;;;;;6.97;0.70;;;;;;;;;;5112838;28;20035;-79
2022/09/21 14:18:58;;;;;;;2.92;0.60;;;;;;;;;;5113034;28;20019;-79
2022/09/21 14:21:24;;;;;;;4.15;0.70;;;;;;;;;;5112766;28;20438;-79
2022/09/21 14:24:06;;;;;;;2.03;0.70;;;;;;;;;;5107080;28;20374;-79
2022/09/21 14:26:35;;;;;;;8.00;0.75;;;;;;;;;;5108710;28;20073;-79
2022/09/21 14:29:24;;;;;;;3.72;1.02;;;;;;;;;;5104049;28;20028;-79
2022/09/21 14:31:54;;;;;;;3.97;0.65;;;;;;;;;;5061033;28;20092;-79
2022/09/21 14:34:23;;;;;;;3.78;0.70;;;;;;;;;;5092621;28;20028;-79
2022/09/21 14:36:50;;;;;;;2.97;0.50;;;;;;;;;;5112982;28;20057;-79
2022/09/21 14:39:25;;;;;;;4.38;0.60;;;;;;;;;;5112860;28;20024;-79
2022/09/21 14:41:52;;;;;;;4.57;0.55;;;;;;;;;;5112518;28;20076;-79
2022/09/21 14:44:25;;;;;;;2.22;0.70;;;;;;;;;;5113110;28;20119;-79
2022/09/21 14:47:07;;;;;;;5.05;0.88;;;;;;;;;;5111469;28;20450;-79
2022/09/21 14:49:33;;;;;;;2.28;0.50;;;;;;;;;;5113097;28;20373;-79
2022/09/21 14:52:02;;;;;;;6.85;0.45;;;;;;;;;;5112899;28;20031;-79
2022/09/21 14:54:47;;;;;;;2.05;0.63;;;;;;;;;;5112666;28;20468;-79
2022/09/21 14:57:13;;;;;;;2.63;0.63;;;;;;;;;;5095185;28;20031;-79
2022/09/21 14:59:58;;;;;;;4.35;0.90;;;;;;;;;;5095381;28;20016;-79
2022/09/21 15:02:26;;;;;;;2.97;0.50;;;;;;;;;;5112934;28;20026;-79
2022/09/21 15:04:52;;;;;;;5.25;0.70;;;;;;;;;;5112905;28;20028;-82